Time;durP1;ratioP1;P1;durP2;ratioP2;P2;SDS_P1;SDS_P2;PMS_P1;PMS_P2;Temp;Humidity;BMP_temperature;BMP_pressure;BME280_temperature;BME280_humidity;BME280_pressure;Samples;Min_cycle;Max_cycle;Signal;HPM_P1;HPM_P2
2023/07/04 00:02:53;;;;;;;8.73;7.45;;;24.10;87.80;;;;;;6182463;28;89114;-67
2023/07/04 00:05:55;;;;;;;9.07;7.63;;;24.00;87.80;;;;;;6207244;28;89005;-67
2023/07/04 00:08:58;;;;;;;9.52;8.52;;;24.00;87.90;;;;;;6197698;28;88688;-66
2023/07/04 00:12:01;;;;;;;11.15;8.00;;;24.00;88.10;;;;;;6206572;28;87882;-66
2023/07/04 00:15:03;;;;;;;9.93;8.15;;;24.00;88.20;;;;;;6204588;28;90659;-66
2023/07/04 00:18:05;;;;;;;8.82;7.60;;;24.10;88.30;;;;;;6194356;28;88909;-67
2023/07/04 00:21:13;;;;;;;10.65;8.48;;;24.00;88.40;;;;;;6203035;28;89145;-67
2023/07/04 00:24:17;;;;;;;9.15;8.00;;;24.00;88.50;;;;;;6196447;28;89498;-66
2023/07/04 00:27:20;;;;;;;9.68;8.30;;;24.00;88.60;;;;;;6225646;28;88445;-67
2023/07/04 00:30:22;;;;;;;9.63;8.27;;;24.00;88.60;;;;;;6205241;28;88722;-66
2023/07/04 00:33:25;;;;;;;10.32;8.13;;;24.00;88.70;;;;;;6186433;28;89414;-67
2023/07/04 00:36:29;;;;;;;9.35;8.13;;;24.00;88.80;;;;;;6196270;28;89353;-67
2023/07/04 00:39:31;;;;;;;9.50;8.07;;;24.00;88.80;;;;;;6198314;28;88780;-67
2023/07/04 00:42:36;;;;;;;10.20;8.57;;;24.00;88.80;;;;;;6218324;28;89929;-67
2023/07/04 00:45:42;;;;;;;8.85;7.95;;;24.00;88.80;;;;;;6224548;28;89015;-67
2023/07/04 00:48:47;;;;;;;9.30;7.63;;;24.10;88.90;;;;;;6204522;28;90112;-67
2023/07/04 00:51:56;;;;;;;10.95;8.20;;;24.00;88.80;;;;;;6190734;28;89098;-67
2023/07/04 00:55:00;;;;;;;9.38;8.23;;;24.00;88.90;;;;;;6208714;28;89094;-67
2023/07/04 00:58:04;;;;;;;10.98;8.38;;;24.00;89.00;;;;;;6201142;28;88127;-67
2023/07/04 01:01:06;;;;;;;9.63;8.18;;;24.00;89.00;;;;;;6216868;28;91379;-67
2023/07/04 01:04:08;;;;;;;10.35;8.73;;;24.00;89.00;;;;;;6206508;28;89082;-67
2023/07/04 01:07:19;;;;;;;9.60;8.50;;;24.00;89.10;;;;;;6192848;28;89542;-67
2023/07/04 01:10:26;;;;;;;9.95;8.43;;;24.10;89.10;;;;;;6207172;28;88697;-66
2023/07/04 01:13:35;;;;;;;11.10;8.73;;;24.00;89.10;;;;;;6197040;28;89216;-67
2023/07/04 01:16:37;;;;;;;9.07;8.02;;;24.00;89.10;;;;;;6196504;28;89459;-66
2023/07/04 01:19:39;;;;;;;10.57;8.20;;;24.00;89.10;;;;;;6204586;28;90515;-67
2023/07/04 01:22:51;;;;;;;8.68;7.75;;;24.00;89.10;;;;;;6204150;28;89464;-67
2023/07/04 01:26:00;;;;;;;9.13;8.15;;;24.00;89.20;;;;;;6199299;28;90033;-67
2023/07/04 01:29:06;;;;;;;11.68;8.82;;;24.00;89.30;;;;;;6199536;28;88938;-66
2023/07/04 01:32:09;;;;;;;9.80;8.63;;;24.00;89.20;;;;;;6212170;28;89380;-67
2023/07/04 01:35:13;;;;;;;9.27;7.88;;;23.90;89.10;;;;;;6226167;28;89063;-67
2023/07/04 01:38:15;;;;;;;9.05;8.05;;;24.00;89.10;;;;;;6217381;28;89043;-66
2023/07/04 01:41:17;;;;;;;9.27;8.18;;;24.00;89.10;;;;;;6203690;28;88333;-66
2023/07/04 01:44:24;;;;;;;9.18;8.20;;;24.00;89.20;;;;;;6208845;28;89099;-67
2023/07/04 01:47:26;;;;;;;10.27;8.77;;;24.00;89.10;;;;;;6189033;28;89047;-67
2023/07/04 01:50:28;;;;;;;10.57;8.93;;;24.00;89.30;;;;;;6203725;28;90020;-66
2023/07/04 01:53:30;;;;;;;11.45;8.77;;;24.00;89.30;;;;;;6224313;28;89165;-67
2023/07/04 01:56:34;;;;;;;9.23;8.27;;;24.00;89.30;;;;;;6191625;28;89388;-66
2023/07/04 01:59:37;;;;;;;9.55;8.40;;;24.00;89.30;;;;;;6205903;28;87866;-66
2023/07/04 02:02:40;;;;;;;10.02;8.82;;;24.00;89.30;;;;;;6205399;28;89271;-67
2023/07/04 02:05:42;;;;;;;10.55;8.23;;;24.00;89.20;;;;;;6196213;28;89345;-67
2023/07/04 02:08:45;;;;;;;9.60;8.20;;;23.90;89.10;;;;;;6196746;28;89038;-67
2023/07/04 02:11:47;;;;;;;9.43;8.23;;;24.00;89.20;;;;;;6188326;28;88525;-67
2023/07/04 02:14:50;;;;;;;9.88;8.68;;;24.00;89.10;;;;;;6188204;28;89128;-67
2023/07/04 02:17:53;;;;;;;9.05;8.00;;;23.90;89.10;;;;;;6189870;28;89203;-66
2023/07/04 02:20:55;;;;;;;10.27;8.45;;;23.90;89.00;;;;;;6203142;28;90649;-67
2023/07/04 02:23:57;;;;;;;9.82;8.65;;;23.90;88.90;;;;;;6211684;28;90291;-67
2023/07/04 02:26:59;;;;;;;10.70;8.40;;;23.90;88.90;;;;;;6203367;28;89445;-67
2023/07/04 02:30:03;;;;;;;9.32;7.97;;;24.00;88.90;;;;;;6207793;28;89280;-66
2023/07/04 02:33:05;;;;;;;10.63;8.80;;;23.90;88.80;;;;;;6195592;28;89026;-67
2023/07/04 02:36:11;;;;;;;10.05;8.63;;;24.00;88.80;;;;;;6206188;28;88260;-67
2023/07/04 02:39:13;;;;;;;9.80;8.80;;;24.00;88.80;;;;;;6205073;28;89081;-67
2023/07/04 02:42:15;;;;;;;10.07;8.43;;;23.90;88.60;;;;;;6197242;28;88676;-67
2023/07/04 02:45:19;;;;;;;10.38;8.45;;;23.90;88.60;;;;;;6208580;28;89056;-67
2023/07/04 02:48:21;;;;;;;9.77;8.70;;;23.90;88.60;;;;;;6196169;28;89265;-67
2023/07/04 02:51:23;;;;;;;9.23;8.27;;;24.00;88.60;;;;;;6207519;28;90391;-66
2023/07/04 02:54:24;;;;;;;10.70;8.50;;;24.00;88.70;;;;;;6203416;28;89189;-67
2023/07/04 02:57:27;;;;;;;10.98;8.63;;;23.90;88.60;;;;;;6203290;28;89056;-67
2023/07/04 03:00:30;;;;;;;9.82;8.40;;;23.90;88.60;;;;;;6217192;28;89030;-67
2023/07/04 03:03:33;;;;;;;9.13;8.07;;;24.00;88.60;;;;;;6205571;28;88161;-67
2023/07/04 03:06:35;;;;;;;9.10;8.07;;;23.90;88.60;;;;;;6208947;28;89056;-67
2023/07/04 03:09:38;;;;;;;9.38;8.40;;;23.90;88.50;;;;;;6194437;28;87993;-67
2023/07/04 03:12:40;;;;;;;10.15;8.32;;;23.90;88.50;;;;;;6204952;28;88711;-67
2023/07/04 03:15:43;;;;;;;10.13;8.85;;;23.90;88.40;;;;;;6196729;28;87987;-66
2023/07/04 03:18:45;;;;;;;9.75;8.75;;;23.90;88.40;;;;;;6193667;28;89486;-66
2023/07/04 03:21:47;;;;;;;10.20;8.63;;;23.90;88.40;;;;;;6196587;28;90104;-67
2023/07/04 03:24:49;;;;;;;10.35;8.57;;;23.90;88.40;;;;;;6197192;28;89406;-67
2023/07/04 03:27:51;;;;;;;9.48;8.48;;;23.90;88.30;;;;;;6202993;28;89092;-66
2023/07/04 03:30:55;;;;;;;11.15;8.80;;;23.90;88.30;;;;;;6212186;28;89357;-66
2023/07/04 03:33:57;;;;;;;10.52;8.95;;;23.90;88.30;;;;;;6208096;28;89337;-67
2023/07/04 03:36:59;;;;;;;11.75;8.95;;;23.90;89.20;;;;;;6205131;28;89717;-66
2023/07/04 03:40:06;;;;;;;9.65;8.65;;;23.90;88.30;;;;;;6207676;28;89109;-66
2023/07/04 03:43:08;;;;;;;10.57;9.02;;;23.90;88.30;;;;;;6210678;28;88566;-69
2023/07/04 03:46:11;;;;;;;9.23;8.32;;;23.90;88.30;;;;;;6231608;28;88975;-69
2023/07/04 03:49:13;;;;;;;9.07;8.18;;;23.90;88.30;;;;;;6207971;28;89184;-69
2023/07/04 03:52:15;;;;;;;9.63;8.57;;;23.90;88.30;;;;;;6203110;28;90438;-69
2023/07/04 03:55:17;;;;;;;9.48;8.48;;;23.90;88.30;;;;;;6203447;28;89152;-66
2023/07/04 03:58:19;;;;;;;11.23;8.93;;;23.90;88.30;;;;;;6216839;28;89080;-67
2023/07/04 04:01:24;;;;;;;9.32;8.32;;;23.90;88.20;;;;;;6220457;28;88012;-66
2023/07/04 04:04:26;;;;;;;10.90;8.45;;;23.90;88.30;;;;;;6219136;28;89636;-67
2023/07/04 04:07:28;;;;;;;9.15;8.05;;;23.90;88.30;;;;;;6208697;28;88240;-66
2023/07/04 04:10:30;;;;;;;12.40;9.00;;;23.90;88.20;;;;;;6184958;28;88982;-66
2023/07/04 04:13:32;;;;;;;10.90;9.23;;;23.90;88.20;;;;;;6190478;28;88253;-66
2023/07/04 04:16:35;;;;;;;9.52;8.50;;;23.90;88.30;;;;;;6222298;28;89190;-66
2023/07/04 04:19:37;;;;;;;9.02;8.13;;;23.90;88.70;;;;;;6199239;28;89188;-67
2023/07/04 04:22:44;;;;;;;9.52;8.40;;;23.90;88.30;;;;;;6197106;28;88896;-67
2023/07/04 04:25:46;;;;;;;10.32;9.10;;;23.90;88.30;;;;;;6183683;28;90035;-67
2023/07/04 04:28:49;;;;;;;10.20;8.95;;;23.90;88.30;;;;;;6198107;28;89044;-67
2023/07/04 04:31:52;;;;;;;10.18;8.90;;;23.90;88.40;;;;;;6198115;28;89155;-69
2023/07/04 04:34:54;;;;;;;11.95;9.07;;;23.90;88.50;;;;;;6213611;28;89148;-67
2023/07/04 04:37:56;;;;;;;12.38;9.25;;;23.90;88.50;;;;;;6215311;28;89412;-67
2023/07/04 04:41:03;;;;;;;10.63;8.90;;;23.80;88.50;;;;;;6213943;28;89054;-67
2023/07/04 04:44:05;;;;;;;9.43;8.13;;;23.90;88.60;;;;;;6206519;28;88305;-66
2023/07/04 04:47:09;;;;;;;9.68;8.57;;;23.90;88.60;;;;;;6207426;28;88222;-66
2023/07/04 04:50:11;;;;;;;10.43;8.90;;;23.90;88.60;;;;;;6198520;28;88004;-66
2023/07/04 04:53:14;;;;;;;11.38;8.70;;;23.90;88.80;;;;;;6201573;28;89983;-66
2023/07/04 04:56:16;;;;;;;12.52;9.35;;;23.80;88.90;;;;;;6200997;28;89032;-66
2023/07/04 04:59:18;;;;;;;9.85;8.77;;;23.80;89.20;;;;;;6196227;28;89036;-68
2023/07/04 05:02:23;;;;;;;11.05;9.35;;;23.90;89.90;;;;;;6195563;28;89085;-65
2023/07/04 05:05:25;;;;;;;10.85;9.10;;;23.90;90.50;;;;;;6193063;28;88891;-68
2023/07/04 05:08:27;;;;;;;9.95;8.95;;;23.90;90.50;;;;;;6204428;28;89123;-65
2023/07/04 05:11:31;;;;;;;11.75;9.23;;;23.90;90.50;;;;;;6191363;28;89456;-66
2023/07/04 05:14:33;;;;;;;12.20;9.52;;;23.90;90.40;;;;;;6202525;28;88504;-65
2023/07/04 05:17:37;;;;;;;10.25;9.02;;;24.00;90.60;;;;;;6200056;28;89251;-65
2023/07/04 05:20:38;;;;;;;10.98;8.68;;;24.00;90.90;;;;;;6220709;28;89227;-66
2023/07/04 05:23:42;;;;;;;9.73;8.20;;;24.00;91.00;;;;;;6202806;28;90992;-65
2023/07/04 05:26:44;;;;;;;10.60;7.95;;;24.00;90.90;;;;;;6193808;28;89253;-64
2023/07/04 05:29:48;;;;;;;8.60;7.55;;;24.00;90.70;;;;;;6204924;28;89069;-64
2023/07/04 05:32:51;;;;;;;9.38;7.13;;;24.00;90.60;;;;;;6210283;28;89079;-64
2023/07/04 05:36:03;;;;;;;9.77;7.55;;;24.10;90.50;;;;;;6213808;28;89232;-64
2023/07/04 05:39:07;;;;;;;9.25;7.22;;;24.00;90.30;;;;;;6198970;28;89121;-64
2023/07/04 05:42:09;;;;;;;9.55;6.70;;;24.00;90.10;;;;;;6207485;28;87876;-64
2023/07/04 05:45:11;;;;;;;7.35;6.18;;;24.00;89.80;;;;;;6199144;28;88353;-64
2023/07/04 05:48:14;;;;;;;9.85;6.55;;;24.00;88.90;;;;;;6210685;28;89011;-64
2023/07/04 05:51:18;;;;;;;7.75;5.90;;;24.00;87.80;;;;;;6221919;28;89031;-64
2023/07/04 05:54:20;;;;;;;8.57;5.68;;;23.90;87.20;;;;;;6213775;28;89942;-64
2023/07/04 05:57:22;;;;;;;6.22;5.63;;;23.90;86.50;;;;;;6199997;28;89387;-64
2023/07/04 06:00:24;;;;;;;6.40;5.38;;;24.00;86.10;;;;;;6198113;28;89024;-64
2023/07/04 06:03:28;;;;;;;7.18;5.57;;;23.90;85.90;;;;;;6213522;28;88921;-65
2023/07/04 06:06:33;;;;;;;6.88;5.30;;;23.90;85.70;;;;;;6199232;28;88948;-64
2023/07/04 06:09:35;;;;;;;5.85;4.63;;;23.90;85.50;;;;;;6188385;28;89268;-64
2023/07/04 06:12:37;;;;;;;7.68;5.28;;;23.90;85.40;;;;;;6198038;28;89106;-64
2023/07/04 06:15:42;;;;;;;7.30;5.03;;;23.90;85.20;;;;;;6194227;28;88388;-64
2023/07/04 06:18:45;;;;;;;6.63;5.43;;;23.90;84.90;;;;;;6204354;28;89164;-64
2023/07/04 06:21:47;;;;;;;6.63;5.13;;;23.90;84.80;;;;;;6191571;28;89140;-65
2023/07/04 06:24:52;;;;;;;6.22;4.80;;;23.90;84.40;;;;;;6202429;28;90123;-64
2023/07/04 06:27:54;;;;;;;7.28;5.25;;;23.90;84.20;;;;;;6195478;28;89029;-65
2023/07/04 06:30:56;;;;;;;5.72;4.47;;;23.90;84.20;;;;;;6203451;28;89140;-64
2023/07/04 06:34:00;;;;;;;5.63;4.65;;;23.90;84.20;;;;;;6201822;28;89161;-64
2023/07/04 06:37:02;;;;;;;6.15;4.80;;;23.90;84.20;;;;;;6212888;28;88906;-64
2023/07/04 06:40:05;;;;;;;7.10;4.63;;;23.90;85.00;;;;;;6223450;28;89037;-65
2023/07/04 06:43:07;;;;;;;8.68;4.82;;;23.90;84.00;;;;;;6208145;28;89043;-65
2023/07/04 06:46:10;;;;;;;4.93;4.15;;;23.90;83.80;;;;;;6203718;28;88417;-65
2023/07/04 06:49:17;;;;;;;6.60;4.30;;;23.90;83.80;;;;;;6204743;28;89131;-65
2023/07/04 06:52:19;;;;;;;6.22;4.55;;;23.90;83.60;;;;;;6195982;28;89817;-64
2023/07/04 06:55:22;;;;;;;5.82;3.95;;;23.90;83.50;;;;;;6211078;28;90060;-65
2023/07/04 06:58:24;;;;;;;5.35;4.07;;;23.90;83.20;;;;;;6202296;28;89066;-65
2023/07/04 07:01:28;;;;;;;5.97;4.10;;;23.90;83.30;;;;;;6222557;28;89171;-65
2023/07/04 07:04:32;;;;;;;7.55;4.18;;;23.90;83.40;;;;;;6210383;28;89122;-66
2023/07/04 07:07:34;;;;;;;7.10;4.13;;;23.90;83.60;;;;;;6195913;28;89465;-65
2023/07/04 07:10:37;;;;;;;5.63;4.22;;;23.90;83.60;;;;;;6189648;28;89043;-65
2023/07/04 07:13:39;;;;;;;6.20;4.18;;;23.90;83.70;;;;;;6205482;28;89136;-65
2023/07/04 07:16:41;;;;;;;7.93;4.32;;;23.90;83.90;;;;;;6210352;28;87172;-65
2023/07/04 07:19:45;;;;;;;5.65;4.15;;;23.90;84.20;;;;;;6205040;28;89098;-66
2023/07/04 07:22:47;;;;;;;6.57;4.00;;;23.90;84.40;;;;;;6207278;28;89252;-66
2023/07/04 07:25:55;;;;;;;5.65;3.80;;;23.90;84.50;;;;;;6208598;28;90896;-66
2023/07/04 07:28:57;;;;;;;4.95;3.88;;;23.90;84.60;;;;;;6218779;28;88960;-66
2023/07/04 07:32:03;;;;;;;7.70;3.85;;;23.90;84.70;;;;;;6198671;28;89030;-65
2023/07/04 07:35:07;;;;;;;5.35;3.67;;;24.00;84.90;;;;;;6199256;28;89010;-66
2023/07/04 07:38:09;;;;;;;4.47;3.55;;;24.00;85.00;;;;;;6186818;28;88405;-65
2023/07/04 07:41:12;;;;;;;5.70;3.60;;;24.00;85.20;;;;;;6197752;28;89064;-66
2023/07/04 07:44:15;;;;;;;6.28;4.03;;;24.00;85.20;;;;;;6197408;28;89108;-65
2023/07/04 07:47:17;;;;;;;7.03;4.40;;;23.90;85.30;;;;;;6199480;28;87668;-66
2023/07/04 07:50:20;;;;;;;5.00;3.80;;;24.00;85.40;;;;;;6195367;28;89161;-66
2023/07/04 07:53:22;;;;;;;5.20;3.58;;;24.00;85.50;;;;;;6198570;28;89236;-65
2023/07/04 07:56:27;;;;;;;5.82;3.58;;;24.00;85.60;;;;;;6199624;28;90279;-66
2023/07/04 07:59:28;;;;;;;4.95;3.88;;;24.00;85.70;;;;;;6197174;28;89092;-66
2023/07/04 08:02:30;;;;;;;5.53;4.32;;;24.00;85.90;;;;;;6184633;28;89114;-66
2023/07/04 08:05:38;;;;;;;4.82;3.55;;;24.00;86.00;;;;;;6196044;28;89042;-65
2023/07/04 08:08:40;;;;;;;5.47;3.80;;;24.00;86.20;;;;;;6200326;28;88087;-65
2023/07/04 08:11:45;;;;;;;5.65;3.70;;;24.00;86.20;;;;;;6195645;28;89093;-66
2023/07/04 08:14:49;;;;;;;7.50;4.00;;;24.00;86.20;;;;;;6211643;28;89200;-66
2023/07/04 08:17:51;;;;;;;5.25;3.65;;;24.00;86.40;;;;;;6213102;28;88304;-65
2023/07/04 08:21:02;;;;;;;4.47;3.88;;;24.00;86.50;;;;;;6212552;28;89445;-66
2023/07/04 08:24:10;;;;;;;5.07;3.88;;;24.00;86.40;;;;;;6224801;28;89142;-65
2023/07/04 08:27:12;;;;;;;5.03;3.88;;;24.00;86.40;;;;;;6205758;28;89911;-66
2023/07/04 08:30:14;;;;;;;4.43;3.58;;;24.00;86.40;;;;;;6212227;28;89362;-65
2023/07/04 08:33:17;;;;;;;5.05;3.75;;;24.00;86.40;;;;;;6193940;28;89140;-66
2023/07/04 08:36:22;;;;;;;5.03;3.92;;;24.00;86.50;;;;;;6193261;28;88629;-65
2023/07/04 08:39:24;;;;;;;4.53;3.65;;;24.00;86.50;;;;;;6200873;28;89060;-65
2023/07/04 08:42:29;;;;;;;4.75;3.80;;;24.00;86.50;;;;;;6202172;28;89374;-65
2023/07/04 08:45:31;;;;;;;5.97;3.80;;;24.00;86.60;;;;;;6214299;28;89057;-67
2023/07/04 08:48:34;;;;;;;4.22;3.40;;;24.00;86.70;;;;;;6208788;28;88656;-66
2023/07/04 08:51:44;;;;;;;6.32;4.30;;;24.00;86.90;;;;;;6212038;28;89723;-65
2023/07/04 08:54:46;;;;;;;5.53;4.15;;;24.00;86.90;;;;;;6204777;28;89029;-66
2023/07/04 08:57:54;;;;;;;5.38;3.92;;;24.00;87.00;;;;;;6205911;28;90095;-66
2023/07/04 09:00:58;;;;;;;4.55;3.45;;;24.10;87.10;;;;;;6195179;28;89147;-65
2023/07/04 09:04:11;;;;;;;4.43;3.88;;;24.00;87.10;;;;;;6190882;28;89265;-65
2023/07/04 09:07:20;;;;;;;4.38;3.55;;;24.00;87.10;;;;;;6227521;28;89062;-66
2023/07/04 09:10:32;;;;;;;4.32;3.55;;;24.00;87.20;;;;;;6203373;28;89065;-66
2023/07/04 09:13:37;;;;;;;4.65;3.67;;;24.10;87.20;;;;;;6209217;28;87994;-66
2023/07/04 09:16:42;;;;;;;5.45;3.35;;;24.00;87.20;;;;;;6199196;28;87972;-65
2023/07/04 09:19:47;;;;;;;3.85;3.30;;;24.00;87.20;;;;;;6189876;28;88876;-66
2023/07/04 09:22:50;;;;;;;4.18;3.47;;;24.00;87.10;;;;;;6208116;28;89108;-65
2023/07/04 09:25:56;;;;;;;4.28;3.60;;;24.00;87.10;;;;;;6217240;28;89053;-65
2023/07/04 09:29:00;;;;;;;3.67;3.35;;;24.00;87.10;;;;;;6208176;28;89979;-66
2023/07/04 09:32:02;;;;;;;3.92;3.53;;;24.00;87.10;;;;;;6209395;28;88923;-65
2023/07/04 09:35:06;;;;;;;5.43;3.70;;;24.00;87.20;;;;;;6204908;28;89042;-66
2023/07/04 09:38:10;;;;;;;4.38;3.40;;;24.00;87.40;;;;;;6213072;28;89092;-65
2023/07/04 09:41:14;;;;;;;3.83;3.42;;;24.10;87.50;;;;;;6209919;28;89124;-65
2023/07/04 09:44:19;;;;;;;3.55;3.17;;;24.10;87.50;;;;;;6198401;28;89386;-66
2023/07/04 09:47:25;;;;;;;4.88;3.50;;;24.00;87.50;;;;;;6209243;28;87956;-66
2023/07/04 09:50:29;;;;;;;4.78;3.42;;;24.10;87.60;;;;;;6190333;28;88343;-66
2023/07/04 09:53:32;;;;;;;4.22;3.50;;;24.00;87.50;;;;;;6191152;28;89193;-66
2023/07/04 09:56:34;;;;;;;3.78;3.35;;;24.10;87.60;;;;;;6204128;28;89129;-66
2023/07/04 09:59:36;;;;;;;4.95;3.55;;;24.10;87.50;;;;;;6207455;28;90460;-66
2023/07/04 10:02:38;;;;;;;3.45;3.13;;;24.10;87.50;;;;;;6202350;28;89156;-66
2023/07/04 10:05:42;;;;;;;3.50;3.20;;;24.10;87.50;;;;;;6212501;28;89084;-65
2023/07/04 10:08:54;;;;;;;3.78;3.28;;;24.10;87.50;;;;;;6227669;28;89020;-66
2023/07/04 10:12:09;;;;;;;4.72;3.45;;;24.10;87.40;;;;;;6218998;28;89032;-66
2023/07/04 10:15:19;;;;;;;4.43;3.47;;;24.10;87.50;;;;;;6216006;28;89063;-65
2023/07/04 10:18:28;;;;;;;4.32;3.30;;;24.10;87.40;;;;;;6219074;28;89232;-65
2023/07/04 10:21:30;;;;;;;4.22;3.15;;;24.10;87.60;;;;;;6202964;28;88274;-66
2023/07/04 10:24:34;;;;;;;4.50;3.45;;;24.00;87.50;;;;;;6207078;28;89076;-66
2023/07/04 10:27:39;;;;;;;4.65;3.42;;;24.10;87.70;;;;;;6203538;28;89017;-65
2023/07/04 10:30:45;;;;;;;4.82;3.65;;;24.10;87.70;;;;;;6186590;28;89261;-65
2023/07/04 10:33:52;;;;;;;5.50;3.70;;;24.10;87.80;;;;;;6216214;28;89054;-65
2023/07/04 10:36:55;;;;;;;3.67;3.35;;;24.10;87.80;;;;;;6193495;28;89345;-65
2023/07/04 10:40:02;;;;;;;3.78;3.25;;;24.10;87.90;;;;;;6192302;28;87930;-65
2023/07/04 10:43:10;;;;;;;5.45;3.80;;;24.10;87.80;;;;;;6201606;28;87980;-65
2023/07/04 10:46:17;;;;;;;3.65;3.08;;;24.10;87.80;;;;;;6200908;28;89102;-65
2023/07/04 10:49:21;;;;;;;3.83;3.17;;;24.10;87.80;;;;;;6193691;28;89121;-66
2023/07/04 10:52:30;;;;;;;4.28;3.05;;;24.00;87.70;;;;;;6205117;28;88765;-66
2023/07/04 10:55:39;;;;;;;3.88;3.17;;;24.10;87.70;;;;;;6204853;28;89044;-65
2023/07/04 10:58:43;;;;;;;3.33;3.03;;;24.10;87.70;;;;;;6223946;28;89101;-66
2023/07/04 11:01:51;;;;;;;3.70;3.00;;;24.10;87.70;;;;;;6202596;28;90383;-65
2023/07/04 11:04:59;;;;;;;3.40;3.10;;;24.10;87.70;;;;;;6214099;28;88578;-65
2023/07/04 11:08:01;;;;;;;3.55;3.25;;;24.10;87.70;;;;;;6216218;28;89649;-66
2023/07/04 11:11:09;;;;;;;3.42;3.10;;;24.10;87.80;;;;;;6218865;28;88894;-65
2023/07/04 11:14:16;;;;;;;3.63;3.03;;;24.10;87.90;;;;;;6224263;28;88913;-65
2023/07/04 11:17:22;;;;;;;3.35;3.00;;;24.10;88.00;;;;;;6216828;28;89216;-66
2023/07/04 11:20:30;;;;;;;4.18;3.40;;;24.10;88.00;;;;;;6212011;28;89077;-66
2023/07/04 11:23:45;;;;;;;3.60;3.05;;;24.10;88.00;;;;;;6203718;28;88366;-66
2023/07/04 11:26:51;;;;;;;3.80;3.00;;;24.10;88.00;;;;;;6217837;28;89078;-66
2023/07/04 11:29:56;;;;;;;3.63;3.20;;;24.10;87.90;;;;;;6209329;28;90448;-66
2023/07/04 11:32:58;;;;;;;3.40;2.97;;;24.10;87.90;;;;;;6201039;28;90018;-66
2023/07/04 11:36:04;;;;;;;3.85;2.90;;;24.10;88.80;;;;;;6211752;28;89674;-66
2023/07/04 11:39:18;;;;;;;3.30;3.00;;;24.10;87.90;;;;;;6198141;28;88071;-65
2023/07/04 11:42:24;;;;;;;3.17;2.88;;;24.10;87.90;;;;;;6201304;28;89155;-66
2023/07/04 11:45:29;;;;;;;3.15;2.83;;;24.10;87.90;;;;;;6209783;28;89526;-66
2023/07/04 11:48:34;;;;;;;4.30;3.13;;;24.20;87.90;;;;;;6215392;28;89087;-66
2023/07/04 11:51:38;;;;;;;3.78;2.88;;;24.10;87.80;;;;;;6202823;28;89052;-65
2023/07/04 11:54:40;;;;;;;3.47;3.17;;;24.10;87.90;;;;;;6204038;28;87239;-66
2023/07/04 11:58:18;;;;;;;3.42;3.13;;;24.10;87.90;;;;;;6198095;28;89093;-66
2023/07/04 12:01:20;;;;;;;3.22;2.92;;;24.10;88.00;;;;;;6198600;28;89087;-65
2023/07/04 12:04:23;;;;;;;3.42;3.13;;;24.10;88.10;;;;;;6205425;28;90025;-66
2023/07/04 12:07:47;;;;;;;3.33;3.03;;;24.20;88.20;;;;;;6184873;28;89114;-66
2023/07/04 12:10:49;;;;;;;3.35;2.90;;;24.10;88.10;;;;;;6197281;28;89289;-66
2023/07/04 12:13:54;;;;;;;3.53;2.97;;;24.20;88.20;;;;;;6220490;28;89279;-65
2023/07/04 12:16:59;;;;;;;3.15;2.78;;;24.10;88.10;;;;;;6211091;28;89330;-65
2023/07/04 12:20:03;;;;;;;3.13;2.53;;;24.10;88.10;;;;;;6210033;28;89297;-66
2023/07/04 12:23:10;;;;;;;5.30;3.53;;;24.10;88.10;;;;;;6212374;28;89316;-65
2023/07/04 12:26:18;;;;;;;4.20;3.20;;;24.10;88.00;;;;;;6219496;28;87254;-66
2023/07/04 12:29:21;;;;;;;3.72;3.00;;;24.10;87.90;;;;;;6202590;28;89165;-65
2023/07/04 12:32:24;;;;;;;3.55;2.95;;;24.20;87.90;;;;;;6207851;28;89033;-66
2023/07/04 12:35:30;;;;;;;3.78;3.10;;;24.10;87.90;;;;;;6204150;28;90309;-65
2023/07/04 12:38:33;;;;;;;2.65;2.42;;;24.10;87.90;;;;;;6200313;28;89097;-66
2023/07/04 12:41:39;;;;;;;4.55;3.10;;;24.20;87.90;;;;;;6208402;28;89354;-66
2023/07/04 12:44:43;;;;;;;3.03;2.70;;;24.20;87.90;;;;;;6194755;28;88886;-65
2023/07/04 12:47:46;;;;;;;3.58;2.45;;;24.10;87.90;;;;;;6219946;28;89007;-66
2023/07/04 12:50:52;;;;;;;2.83;2.63;;;24.20;88.10;;;;;;6206990;28;89132;-65
2023/07/04 12:53:57;;;;;;;2.88;2.67;;;24.10;88.10;;;;;;6218759;28;89314;-66
2023/07/04 12:56:59;;;;;;;3.15;2.83;;;24.20;88.20;;;;;;6207148;28;88652;-65
2023/07/04 13:00:11;;;;;;;2.97;2.58;;;24.10;88.10;;;;;;6214148;28;89189;-65
2023/07/04 13:03:18;;;;;;;2.70;2.50;;;24.20;88.30;;;;;;6215176;28;87974;-66
2023/07/04 13:06:21;;;;;;;2.97;2.67;;;24.10;88.10;;;;;;6213462;28;89948;-65
2023/07/04 13:09:23;;;;;;;2.95;2.58;;;24.10;88.10;;;;;;6222052;28;89113;-66
2023/07/04 13:12:31;;;;;;;3.20;2.67;;;24.20;88.10;;;;;;6216719;28;87802;-65
2023/07/04 13:15:35;;;;;;;3.40;2.80;;;24.20;88.10;;;;;;6213538;28;89002;-66
2023/07/04 13:18:39;;;;;;;4.70;3.00;;;24.20;88.00;;;;;;6195258;28;89016;-65
2023/07/04 13:21:44;;;;;;;2.95;2.65;;;24.20;88.00;;;;;;6206220;28;89208;-66
2023/07/04 13:24:51;;;;;;;2.80;2.50;;;24.20;87.90;;;;;;6205421;28;87953;-65
2023/07/04 13:28:06;;;;;;;2.97;2.67;;;24.10;87.90;;;;;;6197799;28;88317;-66
2023/07/04 13:31:19;;;;;;;3.20;2.80;;;24.20;87.90;;;;;;6207985;28;89078;-66
2023/07/04 13:34:29;;;;;;;3.17;2.75;;;24.20;88.00;;;;;;6207498;28;88939;-65
2023/07/04 13:37:31;;;;;;;3.40;2.78;;;24.20;88.10;;;;;;6207539;28;90098;-66
2023/07/04 13:40:33;;;;;;;2.75;2.50;;;24.20;88.10;;;;;;6201340;28;89083;-66
2023/07/04 13:43:36;;;;;;;2.90;2.60;;;24.20;88.20;;;;;;6223044;28;89829;-66
2023/07/04 13:46:39;;;;;;;2.88;2.55;;;24.10;88.10;;;;;;6210105;28;89070;-66
2023/07/04 13:49:42;;;;;;;3.10;2.80;;;24.20;88.10;;;;;;6213481;28;89032;-66
2023/07/04 13:52:44;;;;;;;3.85;2.72;;;24.20;88.10;;;;;;6219165;28;89045;-65
2023/07/04 13:55:47;;;;;;;2.45;2.22;;;24.20;88.10;;;;;;6206005;28;89665;-66
2023/07/04 13:58:49;;;;;;;2.88;2.55;;;24.20;88.10;;;;;;6195452;28;88413;-66
2023/07/04 14:01:52;;;;;;;3.03;2.55;;;24.20;88.10;;;;;;6201716;28;89447;-66
2023/07/04 14:04:54;;;;;;;2.83;2.58;;;24.20;88.10;;;;;;6192625;28;89089;-66
2023/07/04 14:07:56;;;;;;;2.45;2.25;;;24.20;88.10;;;;;;6216712;28;90169;-66
2023/07/04 14:11:02;;;;;;;2.50;2.30;;;24.20;88.10;;;;;;6214063;28;89278;-66
2023/07/04 14:14:04;;;;;;;3.95;2.83;;;24.20;88.10;;;;;;6190976;28;89431;-66
2023/07/04 14:17:08;;;;;;;2.78;2.47;;;24.20;88.00;;;;;;6209350;28;89073;-66
2023/07/04 14:20:11;;;;;;;2.50;2.30;;;24.20;87.90;;;;;;6182119;28;88936;-66
2023/07/04 14:23:13;;;;;;;3.17;2.55;;;24.20;88.90;;;;;;6196026;28;89104;-66
2023/07/04 14:26:17;;;;;;;3.88;2.95;;;24.20;88.00;;;;;;6187755;28;88962;-66
2023/07/04 14:29:19;;;;;;;2.70;2.45;;;24.20;88.10;;;;;;6194887;28;88417;-66
2023/07/04 14:32:22;;;;;;;5.50;3.25;;;24.20;88.10;;;;;;6226003;28;88792;-66
2023/07/04 14:35:24;;;;;;;3.65;2.55;;;24.20;88.10;;;;;;6205550;28;89134;-66
2023/07/04 14:38:26;;;;;;;2.50;2.30;;;24.20;88.10;;;;;;6229969;28;90005;-66
2023/07/04 14:41:29;;;;;;;2.38;2.17;;;24.20;88.10;;;;;;6206446;28;89013;-66
2023/07/04 14:44:31;;;;;;;2.50;2.30;;;24.20;88.10;;;;;;6226273;28;89254;-66
2023/07/04 14:47:35;;;;;;;2.38;2.15;;;24.20;88.10;;;;;;6205354;28;89132;-66
2023/07/04 14:50:37;;;;;;;3.35;2.10;;;24.20;88.10;;;;;;6190786;28;89162;-66
2023/07/04 14:53:39;;;;;;;2.50;2.30;;;24.20;88.10;;;;;;6197645;28;89100;-66
2023/07/04 14:56:41;;;;;;;2.22;2.03;;;24.20;88.10;;;;;;6200633;28;89185;-66
2023/07/04 14:59:43;;;;;;;2.80;2.28;;;24.20;88.10;;;;;;6203248;28;88452;-66
2023/07/04 15:02:48;;;;;;;2.95;2.40;;;24.10;88.00;;;;;;6204306;28;89024;-66
2023/07/04 15:05:50;;;;;;;3.10;2.42;;;24.10;88.00;;;;;;6221029;28;89081;-66
2023/07/04 15:08:52;;;;;;;2.60;2.40;;;24.20;88.10;;;;;;6210047;28;90140;-66
2023/07/04 15:11:54;;;;;;;2.50;2.30;;;24.20;88.00;;;;;;6186613;28;89004;-66
2023/07/04 15:14:56;;;;;;;2.40;2.20;;;24.20;88.00;;;;;;6195268;28;89925;-66
2023/07/04 15:17:59;;;;;;;2.35;2.15;;;24.20;88.10;;;;;;6202305;28;89148;-66
2023/07/04 15:21:03;;;;;;;2.33;2.13;;;24.20;88.10;;;;;;6206005;28;89195;-66
2023/07/04 15:24:05;;;;;;;2.45;2.25;;;24.20;88.10;;;;;;6214971;28;89145;-66
2023/07/04 15:27:08;;;;;;;2.50;2.30;;;24.20;88.00;;;;;;6218323;28;89143;-66
2023/07/04 15:30:11;;;;;;;2.35;2.15;;;24.20;88.00;;;;;;6205235;28;88825;-66
2023/07/04 15:33:14;;;;;;;2.55;2.22;;;24.20;88.00;;;;;;6216991;28;89295;-66
2023/07/04 15:36:16;;;;;;;3.08;2.10;;;24.20;88.00;;;;;;6208366;28;87987;-66
2023/07/04 15:39:18;;;;;;;3.08;2.40;;;24.20;88.00;;;;;;6203642;28;88880;-66
2023/07/04 15:42:20;;;;;;;2.65;2.45;;;24.20;88.00;;;;;;6204705;28;87976;-66
2023/07/04 15:45:23;;;;;;;2.40;2.20;;;24.20;88.10;;;;;;6201470;28;90301;-66
2023/07/04 15:48:27;;;;;;;2.65;2.20;;;24.20;88.00;;;;;;6199305;28;89103;-66
2023/07/04 15:51:29;;;;;;;3.38;2.78;;;24.20;88.00;;;;;;6202358;28;89165;-66
2023/07/04 15:54:31;;;;;;;2.58;2.38;;;24.20;88.00;;;;;;6197465;28;89040;-66
2023/07/04 15:57:32;;;;;;;2.88;2.58;;;24.20;88.10;;;;;;6196353;28;89104;-66